sensor_id;sensor_type;location;lat;lon;timestamp;P1;durP1;ratioP1;P2;durP2;ratioP2
7475;SDS011;3779;49.216;8.650;2023-02-28T00:02:39;3.00;;;2.20;;
7475;SDS011;3779;49.216;8.650;2023-02-28T00:05:37;2.63;;;2.37;;
7475;SDS011;3779;49.216;8.650;2023-02-28T00:09:42;4.40;;;2.20;;
7475;SDS011;3779;49.216;8.650;2023-02-28T00:12:36;2.50;;;2.30;;
7475;SDS011;3779;49.216;8.650;2023-02-28T00:15:37;2.50;;;2.30;;
7475;SDS011;3779;49.216;8.650;2023-02-28T00:19:22;2.37;;;2.13;;
7475;SDS011;3779;49.216;8.650;2023-02-28T00:22:10;2.70;;;2.40;;
7475;SDS011;3779;49.216;8.650;2023-02-28T00:25:06;2.40;;;2.20;;
7475;SDS011;3779;49.216;8.650;2023-02-28T00:27:54;2.70;;;2.50;;
7475;SDS011;3779;49.216;8.650;2023-02-28T00:30:47;3.33;;;2.50;;
7475;SDS011;3779;49.216;8.650;2023-02-28T00:33:33;2.80;;;2.60;;
7475;SDS011;3779;49.216;8.650;2023-02-28T00:36:21;2.37;;;2.17;;
7475;SDS011;3779;49.216;8.650;2023-02-28T00:39:08;2.43;;;2.23;;
7475;SDS011;3779;49.216;8.650;2023-02-28T00:41:55;3.33;;;2.60;;
7475;SDS011;3779;49.216;8.650;2023-02-28T00:44:48;2.33;;;2.10;;
7475;SDS011;3779;49.216;8.650;2023-02-28T00:47:38;2.63;;;2.43;;
7475;SDS011;3779;49.216;8.650;2023-02-28T00:50:28;2.60;;;2.33;;
7475;SDS011;3779;49.216;8.650;2023-02-28T00:53:47;2.37;;;1.90;;
7475;SDS011;3779;49.216;8.650;2023-02-28T00:56:49;2.90;;;2.20;;
7475;SDS011;3779;49.216;8.650;2023-02-28T00:59:38;2.50;;;2.30;;
7475;SDS011;3779;49.216;8.650;2023-02-28T01:02:28;2.70;;;2.50;;
7475;SDS011;3779;49.216;8.650;2023-02-28T01:05:41;2.20;;;2.00;;
7475;SDS011;3779;49.216;8.650;2023-02-28T01:08:29;2.10;;;1.90;;
7475;SDS011;3779;49.216;8.650;2023-02-28T01:12:09;2.77;;;2.03;;
7475;SDS011;3779;49.216;8.650;2023-02-28T01:18:49;2.73;;;2.33;;
7475;SDS011;3779;49.216;8.650;2023-02-28T01:21:48;2.87;;;2.63;;
7475;SDS011;3779;49.216;8.650;2023-02-28T01:25:12;2.57;;;2.37;;
7475;SDS011;3779;49.216;8.650;2023-02-28T01:28:06;2.90;;;2.40;;
7475;SDS011;3779;49.216;8.650;2023-02-28T01:32:03;2.60;;;2.40;;
7475;SDS011;3779;49.216;8.650;2023-02-28T01:34:56;2.93;;;2.60;;
7475;SDS011;3779;49.216;8.650;2023-02-28T01:37:48;3.47;;;2.30;;
7475;SDS011;3779;49.216;8.650;2023-02-28T01:40:39;2.90;;;2.57;;
7475;SDS011;3779;49.216;8.650;2023-02-28T01:43:56;2.67;;;2.43;;
7475;SDS011;3779;49.216;8.650;2023-02-28T01:46:50;2.70;;;2.50;;
7475;SDS011;3779;49.216;8.650;2023-02-28T01:49:37;2.83;;;2.60;;
7475;SDS011;3779;49.216;8.650;2023-02-28T01:52:32;3.13;;;2.53;;
7475;SDS011;3779;49.216;8.650;2023-02-28T01:55:46;3.80;;;2.63;;
7475;SDS011;3779;49.216;8.650;2023-02-28T01:58:41;3.60;;;2.60;;
7475;SDS011;3779;49.216;8.650;2023-02-28T02:01:31;3.10;;;2.80;;
7475;SDS011;3779;49.216;8.650;2023-02-28T02:04:26;2.90;;;2.57;;
7475;SDS011;3779;49.216;8.650;2023-02-28T02:07:44;3.20;;;2.53;;
7475;SDS011;3779;49.216;8.650;2023-02-28T02:10:44;2.10;;;1.90;;
7475;SDS011;3779;49.216;8.650;2023-02-28T02:13:51;3.57;;;2.40;;
7475;SDS011;3779;49.216;8.650;2023-02-28T02:24:28;2.90;;;2.70;;
7475;SDS011;3779;49.216;8.650;2023-02-28T02:28:11;3.20;;;2.87;;
7475;SDS011;3779;49.216;8.650;2023-02-28T02:38:10;4.40;;;2.63;;
7475;SDS011;3779;49.216;8.650;2023-02-28T02:41:14;2.80;;;2.60;;
7475;SDS011;3779;49.216;8.650;2023-02-28T02:44:34;4.07;;;2.40;;
7475;SDS011;3779;49.216;8.650;2023-02-28T02:48:25;3.10;;;2.80;;
7475;SDS011;3779;49.216;8.650;2023-02-28T02:51:20;3.00;;;2.70;;
7475;SDS011;3779;49.216;8.650;2023-02-28T02:54:13;2.93;;;2.73;;
7475;SDS011;3779;49.216;8.650;2023-02-28T02:57:10;2.93;;;2.50;;
7475;SDS011;3779;49.216;8.650;2023-02-28T03:00:05;3.33;;;2.70;;
7475;SDS011;3779;49.216;8.650;2023-02-28T03:02:59;2.70;;;2.50;;
7475;SDS011;3779;49.216;8.650;2023-02-28T03:05:55;2.80;;;2.60;;
7475;SDS011;3779;49.216;8.650;2023-02-28T03:09:04;3.70;;;3.00;;
7475;SDS011;3779;49.216;8.650;2023-02-28T03:11:50;3.87;;;2.80;;
7475;SDS011;3779;49.216;8.650;2023-02-28T03:15:07;3.03;;;2.70;;
7475;SDS011;3779;49.216;8.650;2023-02-28T03:27:54;3.17;;;2.87;;
7475;SDS011;3779;49.216;8.650;2023-02-28T03:34:04;2.83;;;2.60;;
7475;SDS011;3779;49.216;8.650;2023-02-28T03:37:25;3.03;;;2.77;;
7475;SDS011;3779;49.216;8.650;2023-02-28T03:40:17;2.80;;;2.60;;
7475;SDS011;3779;49.216;8.650;2023-02-28T03:43:21;3.33;;;3.00;;
7475;SDS011;3779;49.216;8.650;2023-02-28T03:46:24;2.83;;;2.53;;
7475;SDS011;3779;49.216;8.650;2023-02-28T03:49:16;3.50;;;3.20;;
7475;SDS011;3779;49.216;8.650;2023-02-28T03:52:15;3.30;;;3.00;;
7475;SDS011;3779;49.216;8.650;2023-02-28T03:55:10;3.00;;;2.70;;
7475;SDS011;3779;49.216;8.650;2023-02-28T04:00:58;4.77;;;3.13;;
7475;SDS011;3779;49.216;8.650;2023-02-28T04:04:17;3.80;;;3.40;;
7475;SDS011;3779;49.216;8.650;2023-02-28T04:07:08;4.27;;;3.07;;
7475;SDS011;3779;49.216;8.650;2023-02-28T04:10:00;3.57;;;3.20;;
7475;SDS011;3779;49.216;8.650;2023-02-28T04:12:58;3.20;;;2.90;;
7475;SDS011;3779;49.216;8.650;2023-02-28T04:16:08;3.70;;;3.30;;
7475;SDS011;3779;49.216;8.650;2023-02-28T04:18:58;3.40;;;3.10;;
7475;SDS011;3779;49.216;8.650;2023-02-28T04:21:53;6.60;;;3.63;;
7475;SDS011;3779;49.216;8.650;2023-02-28T04:24:44;3.43;;;3.13;;
7475;SDS011;3779;49.216;8.650;2023-02-28T04:27:39;3.57;;;3.27;;
7475;SDS011;3779;49.216;8.650;2023-02-28T04:30:56;3.50;;;3.20;;
7475;SDS011;3779;49.216;8.650;2023-02-28T04:34:48;2.50;;;2.20;;
7475;SDS011;3779;49.216;8.650;2023-02-28T04:38:14;2.67;;;2.47;;
7475;SDS011;3779;49.216;8.650;2023-02-28T04:41:07;5.07;;;3.23;;
7475;SDS011;3779;49.216;8.650;2023-02-28T04:44:00;3.33;;;3.03;;
7475;SDS011;3779;49.216;8.650;2023-02-28T04:47:56;2.97;;;2.77;;
7475;SDS011;3779;49.216;8.650;2023-02-28T04:50:48;2.97;;;2.50;;
7475;SDS011;3779;49.216;8.650;2023-02-28T04:53:37;3.73;;;3.40;;
7475;SDS011;3779;49.216;8.650;2023-02-28T04:56:27;3.83;;;3.50;;
7475;SDS011;3779;49.216;8.650;2023-02-28T04:59:49;3.40;;;3.07;;
7475;SDS011;3779;49.216;8.650;2023-02-28T05:02:49;3.40;;;3.10;;
7475;SDS011;3779;49.216;8.650;2023-02-28T05:05:54;3.23;;;2.73;;
7475;SDS011;3779;49.216;8.650;2023-02-28T05:08:41;4.00;;;3.60;;
7475;SDS011;3779;49.216;8.650;2023-02-28T05:11:32;3.87;;;3.57;;
7475;SDS011;3779;49.216;8.650;2023-02-28T05:14:45;4.00;;;3.60;;
7475;SDS011;3779;49.216;8.650;2023-02-28T05:17:34;3.77;;;3.10;;
7475;SDS011;3779;49.216;8.650;2023-02-28T05:20:21;4.07;;;3.03;;
7475;SDS011;3779;49.216;8.650;2023-02-28T05:23:13;3.90;;;3.50;;
7475;SDS011;3779;49.216;8.650;2023-02-28T05:26:03;4.10;;;3.70;;
7475;SDS011;3779;49.216;8.650;2023-02-28T05:29:16;1.87;;;1.73;;
7475;SDS011;3779;49.216;8.650;2023-02-28T05:32:31;4.03;;;3.60;;
7475;SDS011;3779;49.216;8.650;2023-02-28T05:35:47;3.00;;;2.77;;
7475;SDS011;3779;49.216;8.650;2023-02-28T05:39:23;3.63;;;3.33;;
7475;SDS011;3779;49.216;8.650;2023-02-28T05:42:10;3.80;;;3.50;;
7475;SDS011;3779;49.216;8.650;2023-02-28T05:45:23;3.20;;;2.90;;
7475;SDS011;3779;49.216;8.650;2023-02-28T05:48:13;4.30;;;3.83;;
7475;SDS011;3779;49.216;8.650;2023-02-28T05:52:29;4.10;;;3.70;;
7475;SDS011;3779;49.216;8.650;2023-02-28T05:55:18;2.97;;;2.67;;
7475;SDS011;3779;49.216;8.650;2023-02-28T05:58:07;4.17;;;3.77;;
7475;SDS011;3779;49.216;8.650;2023-02-28T06:01:46;3.87;;;3.00;;
7475;SDS011;3779;49.216;8.650;2023-02-28T06:04:35;4.70;;;4.30;;
7475;SDS011;3779;49.216;8.650;2023-02-28T06:07:22;4.60;;;3.70;;
7475;SDS011;3779;49.216;8.650;2023-02-28T06:10:10;3.53;;;3.23;;
7475;SDS011;3779;49.216;8.650;2023-02-28T06:12:59;2.77;;;2.57;;
7475;SDS011;3779;49.216;8.650;2023-02-28T06:15:48;4.27;;;3.10;;
7475;SDS011;3779;49.216;8.650;2023-02-28T06:18:34;3.80;;;3.43;;
7475;SDS011;3779;49.216;8.650;2023-02-28T06:21:20;4.03;;;3.63;;
7475;SDS011;3779;49.216;8.650;2023-02-28T06:24:06;3.77;;;3.43;;
7475;SDS011;3779;49.216;8.650;2023-02-28T06:26:53;2.83;;;2.53;;
7475;SDS011;3779;49.216;8.650;2023-02-28T06:29:42;4.43;;;3.27;;
7475;SDS011;3779;49.216;8.650;2023-02-28T06:32:28;4.00;;;3.70;;
7475;SDS011;3779;49.216;8.650;2023-02-28T06:35:14;3.57;;;3.07;;
7475;SDS011;3779;49.216;8.650;2023-02-28T06:38:00;4.07;;;3.50;;
7475;SDS011;3779;49.216;8.650;2023-02-28T06:40:52;4.37;;;3.97;;
7475;SDS011;3779;49.216;8.650;2023-02-28T06:43:40;4.07;;;3.77;;
7475;SDS011;3779;49.216;8.650;2023-02-28T06:46:28;3.77;;;3.47;;
7475;SDS011;3779;49.216;8.650;2023-02-28T06:49:16;4.57;;;4.17;;
7475;SDS011;3779;49.216;8.650;2023-02-28T06:52:03;2.77;;;2.57;;
7475;SDS011;3779;49.216;8.650;2023-02-28T06:54:52;4.60;;;3.63;;
7475;SDS011;3779;49.216;8.650;2023-02-28T06:57:45;2.40;;;2.20;;
7475;SDS011;3779;49.216;8.650;2023-02-28T07:00:31;4.63;;;3.50;;
7475;SDS011;3779;49.216;8.650;2023-02-28T07:03:18;2.90;;;1.90;;
7475;SDS011;3779;49.216;8.650;2023-02-28T07:06:06;4.53;;;3.90;;
7475;SDS011;3779;49.216;8.650;2023-02-28T07:08:53;4.03;;;3.63;;
7475;SDS011;3779;49.216;8.650;2023-02-28T07:11:41;4.70;;;4.20;;
7475;SDS011;3779;49.216;8.650;2023-02-28T07:14:28;4.63;;;3.83;;
7475;SDS011;3779;49.216;8.650;2023-02-28T07:17:14;2.87;;;2.60;;
7475;SDS011;3779;49.216;8.650;2023-02-28T07:20:00;4.13;;;3.73;;
7475;SDS011;3779;49.216;8.650;2023-02-28T07:22:46;4.27;;;3.90;;
7475;SDS011;3779;49.216;8.650;2023-02-28T07:25:40;2.20;;;2.00;;
7475;SDS011;3779;49.216;8.650;2023-02-28T07:28:26;3.93;;;3.63;;
7475;SDS011;3779;49.216;8.650;2023-02-28T07:31:13;7.47;;;4.50;;
7475;SDS011;3779;49.216;8.650;2023-02-28T07:34:00;4.40;;;3.33;;
7475;SDS011;3779;49.216;8.650;2023-02-28T07:36:46;4.17;;;3.77;;
7475;SDS011;3779;49.216;8.650;2023-02-28T07:39:31;4.23;;;3.87;;
7475;SDS011;3779;49.216;8.650;2023-02-28T07:42:17;5.67;;;4.00;;
7475;SDS011;3779;49.216;8.650;2023-02-28T07:45:05;4.53;;;3.90;;
7475;SDS011;3779;49.216;8.650;2023-02-28T07:47:52;3.93;;;3.63;;
7475;SDS011;3779;49.216;8.650;2023-02-28T07:50:40;4.93;;;4.00;;
7475;SDS011;3779;49.216;8.650;2023-02-28T07:53:26;2.30;;;2.10;;
7475;SDS011;3779;49.216;8.650;2023-02-28T07:56:13;3.93;;;3.47;;
7475;SDS011;3779;49.216;8.650;2023-02-28T07:59:00;4.40;;;4.00;;
7475;SDS011;3779;49.216;8.650;2023-02-28T08:01:46;4.20;;;3.90;;
7475;SDS011;3779;49.216;8.650;2023-02-28T08:04:35;4.60;;;4.20;;
7475;SDS011;3779;49.216;8.650;2023-02-28T08:07:21;4.90;;;4.20;;
7475;SDS011;3779;49.216;8.650;2023-02-28T08:10:07;4.03;;;3.73;;
7475;SDS011;3779;49.216;8.650;2023-02-28T08:12:55;4.10;;;3.80;;
7475;SDS011;3779;49.216;8.650;2023-02-28T08:15:41;4.93;;;4.50;;
7475;SDS011;3779;49.216;8.650;2023-02-28T08:18:28;4.60;;;4.20;;
7475;SDS011;3779;49.216;8.650;2023-02-28T08:21:13;3.90;;;3.53;;
7475;SDS011;3779;49.216;8.650;2023-02-28T08:23:59;4.60;;;4.20;;
7475;SDS011;3779;49.216;8.650;2023-02-28T08:26:46;5.43;;;4.93;;
7475;SDS011;3779;49.216;8.650;2023-02-28T08:29:31;4.63;;;4.23;;
7475;SDS011;3779;49.216;8.650;2023-02-28T08:32:18;5.83;;;4.73;;
7475;SDS011;3779;49.216;8.650;2023-02-28T08:35:04;3.63;;;3.33;;
7475;SDS011;3779;49.216;8.650;2023-02-28T08:37:50;2.43;;;2.23;;
7475;SDS011;3779;49.216;8.650;2023-02-28T08:40:36;5.37;;;4.80;;
7475;SDS011;3779;49.216;8.650;2023-02-28T08:43:22;4.00;;;1.77;;
7475;SDS011;3779;49.216;8.650;2023-02-28T08:46:11;5.40;;;4.90;;
7475;SDS011;3779;49.216;8.650;2023-02-28T08:48:59;5.10;;;4.43;;
7475;SDS011;3779;49.216;8.650;2023-02-28T08:51:46;5.00;;;4.50;;
7475;SDS011;3779;49.216;8.650;2023-02-28T08:54:32;5.53;;;5.03;;
7475;SDS011;3779;49.216;8.650;2023-02-28T08:57:20;4.30;;;3.90;;
7475;SDS011;3779;49.216;8.650;2023-02-28T09:00:06;4.07;;;3.50;;
7475;SDS011;3779;49.216;8.650;2023-02-28T09:02:53;5.27;;;4.80;;
7475;SDS011;3779;49.216;8.650;2023-02-28T09:05:39;2.57;;;2.20;;
7475;SDS011;3779;49.216;8.650;2023-02-28T09:08:28;3.20;;;2.90;;
7475;SDS011;3779;49.216;8.650;2023-02-28T09:11:15;4.73;;;4.33;;
7475;SDS011;3779;49.216;8.650;2023-02-28T09:14:01;4.33;;;3.93;;
7475;SDS011;3779;49.216;8.650;2023-02-28T09:16:48;2.17;;;1.97;;
7475;SDS011;3779;49.216;8.650;2023-02-28T09:19:34;3.83;;;3.30;;
7475;SDS011;3779;49.216;8.650;2023-02-28T09:22:20;5.50;;;5.00;;
7475;SDS011;3779;49.216;8.650;2023-02-28T09:25:06;5.30;;;4.83;;
7475;SDS011;3779;49.216;8.650;2023-02-28T09:27:52;3.87;;;3.50;;
7475;SDS011;3779;49.216;8.650;2023-02-28T09:30:38;5.00;;;4.00;;
7475;SDS011;3779;49.216;8.650;2023-02-28T09:33:25;4.70;;;4.30;;
7475;SDS011;3779;49.216;8.650;2023-02-28T09:36:11;5.60;;;5.10;;
7475;SDS011;3779;49.216;8.650;2023-02-28T09:38:58;2.63;;;2.43;;
7475;SDS011;3779;49.216;8.650;2023-02-28T09:41:44;3.97;;;3.50;;
7475;SDS011;3779;49.216;8.650;2023-02-28T09:44:39;4.03;;;3.60;;
7475;SDS011;3779;49.216;8.650;2023-02-28T09:47:45;2.27;;;2.07;;
7475;SDS011;3779;49.216;8.650;2023-02-28T09:50:40;4.30;;;3.90;;
7475;SDS011;3779;49.216;8.650;2023-02-28T09:53:32;4.50;;;3.73;;
7475;SDS011;3779;49.216;8.650;2023-02-28T10:05:51;3.27;;;2.97;;
7475;SDS011;3779;49.216;8.650;2023-02-28T10:09:02;4.27;;;3.87;;
7475;SDS011;3779;49.216;8.650;2023-02-28T10:11:52;2.87;;;2.23;;
7475;SDS011;3779;49.216;8.650;2023-02-28T10:14:43;4.80;;;4.33;;
7475;SDS011;3779;49.216;8.650;2023-02-28T10:17:38;4.63;;;4.23;;
7475;SDS011;3779;49.216;8.650;2023-02-28T10:20:28;6.07;;;5.57;;
7475;SDS011;3779;49.216;8.650;2023-02-28T10:23:21;5.43;;;5.03;;
7475;SDS011;3779;49.216;8.650;2023-02-28T10:26:14;5.80;;;5.30;;
7475;SDS011;3779;49.216;8.650;2023-02-28T10:29:01;5.73;;;5.13;;
7475;SDS011;3779;49.216;8.650;2023-02-28T10:31:51;5.90;;;5.40;;
7475;SDS011;3779;49.216;8.650;2023-02-28T10:34:37;5.50;;;4.90;;
7475;SDS011;3779;49.216;8.650;2023-02-28T10:37:23;2.63;;;2.43;;
7475;SDS011;3779;49.216;8.650;2023-02-28T10:46:12;6.33;;;5.60;;
7475;SDS011;3779;49.216;8.650;2023-02-28T10:49:17;5.33;;;4.50;;
7475;SDS011;3779;49.216;8.650;2023-02-28T10:52:07;6.93;;;5.27;;
7475;SDS011;3779;49.216;8.650;2023-02-28T10:55:12;6.07;;;5.50;;
7475;SDS011;3779;49.216;8.650;2023-02-28T10:58:01;5.63;;;5.03;;
7475;SDS011;3779;49.216;8.650;2023-02-28T11:00:47;5.83;;;5.23;;
7475;SDS011;3779;49.216;8.650;2023-02-28T11:03:35;5.90;;;5.30;;
7475;SDS011;3779;49.216;8.650;2023-02-28T11:06:22;7.47;;;5.20;;
7475;SDS011;3779;49.216;8.650;2023-02-28T11:09:18;3.27;;;2.83;;
7475;SDS011;3779;49.216;8.650;2023-02-28T11:15:28;4.97;;;4.33;;
7475;SDS011;3779;49.216;8.650;2023-02-28T11:18:25;5.70;;;5.20;;
7475;SDS011;3779;49.216;8.650;2023-02-28T11:21:15;6.30;;;5.70;;
7475;SDS011;3779;49.216;8.650;2023-02-28T11:24:32;3.57;;;3.27;;
7475;SDS011;3779;49.216;8.650;2023-02-28T11:36:21;6.90;;;4.67;;
7475;SDS011;3779;49.216;8.650;2023-02-28T11:39:17;5.73;;;5.23;;
7475;SDS011;3779;49.216;8.650;2023-02-28T11:48:02;6.00;;;5.13;;
7475;SDS011;3779;49.216;8.650;2023-02-28T11:56:54;5.13;;;4.63;;
7475;SDS011;3779;49.216;8.650;2023-02-28T11:59:59;6.97;;;5.20;;
7475;SDS011;3779;49.216;8.650;2023-02-28T12:09:16;7.00;;;6.30;;
7475;SDS011;3779;49.216;8.650;2023-02-28T12:15:34;6.07;;;5.03;;
7475;SDS011;3779;49.216;8.650;2023-02-28T12:27:48;7.27;;;6.57;;
7475;SDS011;3779;49.216;8.650;2023-02-28T12:30:41;4.50;;;4.10;;
7475;SDS011;3779;49.216;8.650;2023-02-28T12:33:38;6.77;;;6.07;;
7475;SDS011;3779;49.216;8.650;2023-02-28T12:36:27;7.13;;;6.33;;
7475;SDS011;3779;49.216;8.650;2023-02-28T12:39:16;6.73;;;6.13;;
7475;SDS011;3779;49.216;8.650;2023-02-28T12:42:26;7.00;;;6.33;;
7475;SDS011;3779;49.216;8.650;2023-02-28T12:45:22;6.23;;;5.73;;
7475;SDS011;3779;49.216;8.650;2023-02-28T12:48:24;6.73;;;6.13;;
7475;SDS011;3779;49.216;8.650;2023-02-28T12:51:15;6.73;;;6.07;;
7475;SDS011;3779;49.216;8.650;2023-02-28T12:54:09;6.40;;;5.80;;
7475;SDS011;3779;49.216;8.650;2023-02-28T12:59:58;7.03;;;6.33;;
7475;SDS011;3779;49.216;8.650;2023-02-28T13:05:49;6.73;;;6.17;;
7475;SDS011;3779;49.216;8.650;2023-02-28T13:09:12;6.20;;;5.60;;
7475;SDS011;3779;49.216;8.650;2023-02-28T13:12:01;3.87;;;3.57;;
7475;SDS011;3779;49.216;8.650;2023-02-28T13:15:20;7.00;;;6.40;;
7475;SDS011;3779;49.216;8.650;2023-02-28T13:18:26;5.23;;;4.63;;
7475;SDS011;3779;49.216;8.650;2023-02-28T13:21:24;5.80;;;5.30;;
7475;SDS011;3779;49.216;8.650;2023-02-28T13:24:35;4.30;;;3.07;;
7475;SDS011;3779;49.216;8.650;2023-02-28T13:27:39;6.53;;;6.00;;
7475;SDS011;3779;49.216;8.650;2023-02-28T13:40:26;7.10;;;6.17;;
7475;SDS011;3779;49.216;8.650;2023-02-28T13:43:17;5.80;;;5.30;;
7475;SDS011;3779;49.216;8.650;2023-02-28T13:46:13;5.67;;;5.13;;
7475;SDS011;3779;49.216;8.650;2023-02-28T13:49:25;7.53;;;6.83;;
7475;SDS011;3779;49.216;8.650;2023-02-28T13:52:21;7.97;;;6.20;;
7475;SDS011;3779;49.216;8.650;2023-02-28T14:01:50;7.30;;;6.60;;
7475;SDS011;3779;49.216;8.650;2023-02-28T14:07:36;3.43;;;2.60;;
7475;SDS011;3779;49.216;8.650;2023-02-28T14:10:37;4.83;;;4.43;;
7475;SDS011;3779;49.216;8.650;2023-02-28T14:13:45;6.50;;;5.67;;
7475;SDS011;3779;49.216;8.650;2023-02-28T14:16:45;5.60;;;5.13;;
7475;SDS011;3779;49.216;8.650;2023-02-28T14:19:39;5.37;;;4.87;;
7475;SDS011;3779;49.216;8.650;2023-02-28T14:22:44;5.10;;;4.57;;
7475;SDS011;3779;49.216;8.650;2023-02-28T14:25:59;4.97;;;4.47;;
7475;SDS011;3779;49.216;8.650;2023-02-28T14:36:07;4.17;;;3.77;;
7475;SDS011;3779;49.216;8.650;2023-02-28T14:39:12;14.43;;;13.10;;
7475;SDS011;3779;49.216;8.650;2023-02-28T14:42:24;5.40;;;4.90;;
7475;SDS011;3779;49.216;8.650;2023-02-28T14:45:32;7.50;;;6.83;;
7475;SDS011;3779;49.216;8.650;2023-02-28T14:48:24;5.90;;;5.40;;
7475;SDS011;3779;49.216;8.650;2023-02-28T14:51:17;6.43;;;5.87;;
7475;SDS011;3779;49.216;8.650;2023-02-28T14:54:12;7.50;;;6.80;;
7475;SDS011;3779;49.216;8.650;2023-02-28T14:57:33;7.33;;;6.63;;
7475;SDS011;3779;49.216;8.650;2023-02-28T15:00:26;2.67;;;2.47;;
7475;SDS011;3779;49.216;8.650;2023-02-28T15:03:21;4.63;;;4.20;;
7475;SDS011;3779;49.216;8.650;2023-02-28T15:06:22;6.83;;;6.23;;
7475;SDS011;3779;49.216;8.650;2023-02-28T15:09:16;4.97;;;4.10;;
7475;SDS011;3779;49.216;8.650;2023-02-28T15:20:40;3.73;;;3.33;;
7475;SDS011;3779;49.216;8.650;2023-02-28T15:27:29;6.97;;;5.90;;
7475;SDS011;3779;49.216;8.650;2023-02-28T15:30:29;5.37;;;4.87;;
7475;SDS011;3779;49.216;8.650;2023-02-28T15:33:18;5.20;;;4.67;;
7475;SDS011;3779;49.216;8.650;2023-02-28T15:36:13;7.40;;;6.43;;
7475;SDS011;3779;49.216;8.650;2023-02-28T15:43:17;5.33;;;4.50;;
7475;SDS011;3779;49.216;8.650;2023-02-28T15:46:13;4.97;;;4.50;;
7475;SDS011;3779;49.216;8.650;2023-02-28T15:49:13;3.47;;;3.17;;
7475;SDS011;3779;49.216;8.650;2023-02-28T15:52:51;5.00;;;4.33;;
7475;SDS011;3779;49.216;8.650;2023-02-28T15:56:25;6.03;;;5.50;;
7475;SDS011;3779;49.216;8.650;2023-02-28T15:59:48;7.27;;;6.63;;
7475;SDS011;3779;49.216;8.650;2023-02-28T16:02:58;5.47;;;4.97;;
7475;SDS011;3779;49.216;8.650;2023-02-28T16:06:25;6.93;;;6.23;;
7475;SDS011;3779;49.216;8.650;2023-02-28T16:09:23;7.30;;;6.60;;
7475;SDS011;3779;49.216;8.650;2023-02-28T16:12:12;5.87;;;5.37;;
7475;SDS011;3779;49.216;8.650;2023-02-28T16:15:17;4.53;;;4.13;;
7475;SDS011;3779;49.216;8.650;2023-02-28T16:18:12;6.90;;;6.30;;
7475;SDS011;3779;49.216;8.650;2023-02-28T16:20:59;6.67;;;6.07;;
7475;SDS011;3779;49.216;8.650;2023-02-28T16:23:47;6.83;;;6.13;;
7475;SDS011;3779;49.216;8.650;2023-02-28T16:26:35;6.97;;;6.37;;
7475;SDS011;3779;49.216;8.650;2023-02-28T16:29:27;7.90;;;7.10;;
7475;SDS011;3779;49.216;8.650;2023-02-28T16:32:22;5.30;;;4.80;;
7475;SDS011;3779;49.216;8.650;2023-02-28T16:35:10;6.20;;;5.63;;
7475;SDS011;3779;49.216;8.650;2023-02-28T16:38:01;4.90;;;4.50;;
7475;SDS011;3779;49.216;8.650;2023-02-28T16:40:58;7.63;;;6.90;;
7475;SDS011;3779;49.216;8.650;2023-02-28T16:43:47;7.37;;;6.67;;
7475;SDS011;3779;49.216;8.650;2023-02-28T16:46:39;8.53;;;7.73;;
7475;SDS011;3779;49.216;8.650;2023-02-28T16:49:26;7.57;;;6.73;;
7475;SDS011;3779;49.216;8.650;2023-02-28T16:52:12;6.67;;;6.07;;
7475;SDS011;3779;49.216;8.650;2023-02-28T16:54:59;7.03;;;6.43;;
7475;SDS011;3779;49.216;8.650;2023-02-28T16:57:47;7.57;;;6.87;;
7475;SDS011;3779;49.216;8.650;2023-02-28T17:00:41;3.00;;;2.70;;
7475;SDS011;3779;49.216;8.650;2023-02-28T17:03:29;5.90;;;5.37;;
7475;SDS011;3779;49.216;8.650;2023-02-28T17:06:22;5.20;;;4.70;;
7475;SDS011;3779;49.216;8.650;2023-02-28T17:09:14;7.70;;;7.00;;
7475;SDS011;3779;49.216;8.650;2023-02-28T17:12:05;7.77;;;7.07;;
7475;SDS011;3779;49.216;8.650;2023-02-28T17:14:52;7.63;;;6.93;;
7475;SDS011;3779;49.216;8.650;2023-02-28T17:17:38;7.33;;;6.63;;
7475;SDS011;3779;49.216;8.650;2023-02-28T17:20:24;7.57;;;6.87;;
7475;SDS011;3779;49.216;8.650;2023-02-28T17:23:13;9.23;;;8.40;;
7475;SDS011;3779;49.216;8.650;2023-02-28T17:26:01;10.90;;;9.90;;
7475;SDS011;3779;49.216;8.650;2023-02-28T17:28:52;10.37;;;9.37;;
7475;SDS011;3779;49.216;8.650;2023-02-28T17:31:43;8.67;;;7.97;;
7475;SDS011;3779;49.216;8.650;2023-02-28T17:34:29;6.70;;;6.10;;
7475;SDS011;3779;49.216;8.650;2023-02-28T17:37:16;8.40;;;7.60;;
7475;SDS011;3779;49.216;8.650;2023-02-28T17:40:03;9.90;;;8.50;;
7475;SDS011;3779;49.216;8.650;2023-02-28T17:42:51;10.03;;;8.57;;
7475;SDS011;3779;49.216;8.650;2023-02-28T17:45:54;8.80;;;7.90;;
7475;SDS011;3779;49.216;8.650;2023-02-28T17:48:51;10.00;;;7.83;;
7475;SDS011;3779;49.216;8.650;2023-02-28T17:51:41;10.20;;;8.60;;
7475;SDS011;3779;49.216;8.650;2023-02-28T17:54:27;10.23;;;9.13;;
7475;SDS011;3779;49.216;8.650;2023-02-28T17:57:14;9.23;;;8.33;;
7475;SDS011;3779;49.216;8.650;2023-02-28T18:00:02;9.93;;;8.93;;
7475;SDS011;3779;49.216;8.650;2023-02-28T18:02:57;12.07;;;10.83;;
7475;SDS011;3779;49.216;8.650;2023-02-28T18:05:43;20.53;;;17.47;;
7475;SDS011;3779;49.216;8.650;2023-02-28T18:08:29;21.57;;;16.97;;
7475;SDS011;3779;49.216;8.650;2023-02-28T18:11:21;9.53;;;8.53;;
7475;SDS011;3779;49.216;8.650;2023-02-28T18:14:08;9.73;;;8.83;;
7475;SDS011;3779;49.216;8.650;2023-02-28T18:16:56;9.73;;;8.73;;
7475;SDS011;3779;49.216;8.650;2023-02-28T18:19:42;9.87;;;8.70;;
7475;SDS011;3779;49.216;8.650;2023-02-28T18:22:29;9.60;;;8.63;;
7475;SDS011;3779;49.216;8.650;2023-02-28T18:25:16;9.30;;;8.27;;
7475;SDS011;3779;49.216;8.650;2023-02-28T18:28:02;9.00;;;8.20;;
7475;SDS011;3779;49.216;8.650;2023-02-28T18:30:51;9.50;;;8.57;;
7475;SDS011;3779;49.216;8.650;2023-02-28T18:33:38;9.73;;;8.83;;
7475;SDS011;3779;49.216;8.650;2023-02-28T18:36:24;11.50;;;10.40;;
7475;SDS011;3779;49.216;8.650;2023-02-28T18:39:13;8.10;;;7.33;;
7475;SDS011;3779;49.216;8.650;2023-02-28T18:42:00;10.83;;;9.73;;
7475;SDS011;3779;49.216;8.650;2023-02-28T18:44:47;10.20;;;9.30;;
7475;SDS011;3779;49.216;8.650;2023-02-28T18:47:33;9.63;;;8.73;;
7475;SDS011;3779;49.216;8.650;2023-02-28T18:50:19;10.13;;;9.17;;
7475;SDS011;3779;49.216;8.650;2023-02-28T18:53:05;10.90;;;9.87;;
7475;SDS011;3779;49.216;8.650;2023-02-28T18:55:52;9.77;;;8.80;;
7475;SDS011;3779;49.216;8.650;2023-02-28T18:58:39;10.80;;;9.70;;
7475;SDS011;3779;49.216;8.650;2023-02-28T19:01:26;13.70;;;11.17;;
7475;SDS011;3779;49.216;8.650;2023-02-28T19:04:15;10.90;;;9.70;;
7475;SDS011;3779;49.216;8.650;2023-02-28T19:07:01;11.70;;;10.37;;
7475;SDS011;3779;49.216;8.650;2023-02-28T19:09:48;12.70;;;11.40;;
7475;SDS011;3779;49.216;8.650;2023-02-28T19:12:35;12.83;;;10.87;;
7475;SDS011;3779;49.216;8.650;2023-02-28T19:15:21;10.53;;;9.53;;
7475;SDS011;3779;49.216;8.650;2023-02-28T19:18:08;11.13;;;9.97;;
7475;SDS011;3779;49.216;8.650;2023-02-28T19:20:56;10.90;;;9.40;;
7475;SDS011;3779;49.216;8.650;2023-02-28T19:23:43;11.37;;;10.00;;
7475;SDS011;3779;49.216;8.650;2023-02-28T19:26:30;10.37;;;9.33;;
7475;SDS011;3779;49.216;8.650;2023-02-28T19:29:16;11.20;;;10.17;;
7475;SDS011;3779;49.216;8.650;2023-02-28T19:32:02;11.40;;;10.30;;
7475;SDS011;3779;49.216;8.650;2023-02-28T19:34:48;13.03;;;10.67;;
7475;SDS011;3779;49.216;8.650;2023-02-28T19:37:36;11.17;;;10.10;;
7475;SDS011;3779;49.216;8.650;2023-02-28T19:40:24;11.40;;;10.27;;
7475;SDS011;3779;49.216;8.650;2023-02-28T19:43:12;11.03;;;9.97;;
7475;SDS011;3779;49.216;8.650;2023-02-28T19:45:59;11.33;;;9.93;;
7475;SDS011;3779;49.216;8.650;2023-02-28T19:48:45;10.87;;;9.77;;
7475;SDS011;3779;49.216;8.650;2023-02-28T19:51:33;11.70;;;10.60;;
7475;SDS011;3779;49.216;8.650;2023-02-28T19:54:19;12.33;;;11.13;;
7475;SDS011;3779;49.216;8.650;2023-02-28T19:57:06;13.00;;;11.13;;
7475;SDS011;3779;49.216;8.650;2023-02-28T19:59:52;12.73;;;11.30;;
7475;SDS011;3779;49.216;8.650;2023-02-28T20:02:38;14.40;;;12.50;;
7475;SDS011;3779;49.216;8.650;2023-02-28T20:05:24;14.03;;;12.53;;
7475;SDS011;3779;49.216;8.650;2023-02-28T20:08:10;14.37;;;12.97;;
7475;SDS011;3779;49.216;8.650;2023-02-28T20:11:30;14.77;;;13.27;;
7475;SDS011;3779;49.216;8.650;2023-02-28T20:14:13;16.87;;;14.33;;
7475;SDS011;3779;49.216;8.650;2023-02-28T20:16:59;16.23;;;14.10;;
7475;SDS011;3779;49.216;8.650;2023-02-28T20:19:45;16.57;;;14.43;;
7475;SDS011;3779;49.216;8.650;2023-02-28T20:22:31;17.50;;;15.70;;
7475;SDS011;3779;49.216;8.650;2023-02-28T20:25:18;16.13;;;14.40;;
7475;SDS011;3779;49.216;8.650;2023-02-28T20:28:05;15.70;;;13.80;;